Time;durP1;ratioP1;P1;durP2;ratioP2;P2;SDS_P1;SDS_P2;PMS_P1;PMS_P2;Temp;Humidity;BMP_temperature;BMP_pressure;BME280_temperature;BME280_humidity;BME280_pressure;Samples;Min_cycle;Max_cycle;Signal;HPM_P1;HPM_P2
2022/01/24 00:02:26;;;;;;;2.60;0.80;;;-8.80;99.90;;;;;;2220841;64;20080;-40
2022/01/24 00:04:53;;;;;;;2.77;1.63;;;-8.80;99.90;;;;;;2213815;64;20552;-40
2022/01/24 00:07:22;;;;;;;6.93;2.17;;;-8.80;99.90;;;;;;2220878;64;20100;-40
2022/01/24 00:09:51;;;;;;;7.50;2.10;;;-8.80;99.90;;;;;;2220764;64;20089;-40
2022/01/24 00:12:35;;;;;;;1.47;0.37;;;-8.90;99.90;;;;;;2220819;64;20084;-46
2022/01/24 00:15:16;;;;;;;5.80;2.85;;;-8.90;99.90;;;;;;2220913;64;20089;-41
2022/01/24 00:17:50;;;;;;;11.40;2.30;;;-8.90;99.90;;;;;;2220929;64;20105;-42
2022/01/24 00:28:15;;;;;;;5.60;2.72;;;-9.10;99.90;;;;;;2224637;64;20181;-40
2022/01/24 00:30:41;;;;;;;7.27;2.93;;;-9.10;99.90;;;;;;2224566;64;20099;-39
2022/01/24 00:33:08;;;;;;;9.83;3.00;;;-9.10;99.90;;;;;;2224704;64;20088;-39
2022/01/24 00:35:34;;;;;;;5.80;1.43;;;-9.20;99.90;;;;;;2224568;64;20096;-39
2022/01/24 00:38:02;;;;;;;6.23;2.73;;;-9.20;99.90;;;;;;2224804;64;20092;-39
2022/01/24 00:40:31;;;;;;;8.10;3.43;;;-9.30;99.90;;;;;;2224699;64;20151;-39
2022/01/24 00:42:59;;;;;;;8.03;3.87;;;-9.30;99.90;;;;;;2224455;64;20134;-41
2022/01/24 00:53:39;;;;;;;8.50;4.05;;;-9.40;99.90;;;;;;2224493;64;20148;-41
2022/01/24 00:56:05;;;;;;;;;;;-9.40;99.90;;;;;;2224798;64;20080;-38
2022/01/24 00:58:32;;;;;;;7.90;3.70;;;-9.40;99.90;;;;;;2224595;64;20440;-39
2022/01/24 01:00:59;;;;;;;9.23;3.67;;;-9.40;99.90;;;;;;2220613;64;20096;-40
2022/01/24 01:03:25;;;;;;;1.17;1.07;;;-9.40;99.90;;;;;;2224462;64;20105;-39
2022/01/24 01:06:11;;;;;;;8.93;2.13;;;-9.40;99.90;;;;;;2224475;64;20172;-41
2022/01/24 01:19:39;;;;;;;10.93;1.95;;;-9.50;99.90;;;;;;2225975;64;20110;-42
2022/01/24 01:22:05;;;;;;;2.63;1.13;;;-9.50;99.90;;;;;;2225796;64;20122;-41
2022/01/24 01:24:37;;;;;;;6.33;2.30;;;-9.50;99.90;;;;;;2221595;64;20107;-40
2022/01/24 01:27:16;;;;;;;7.80;3.03;;;-9.50;99.90;;;;;;2221713;64;20119;-41
2022/01/24 01:29:53;;;;;;;7.03;2.27;;;-9.50;99.90;;;;;;2221942;64;20104;-40
2022/01/24 01:38:02;;;;;;;15.00;7.30;;;-9.60;99.90;;;;;;2221917;64;20172;-42
2022/01/24 01:52:18;;;;;;;15.50;3.67;;;-9.60;99.90;;;;;;2221767;64;20085;-40
2022/01/24 01:54:45;;;;;;;15.15;4.88;;;-9.70;99.90;;;;;;2221670;64;20096;-41
2022/01/24 01:57:17;;;;;;;8.20;3.20;;;-9.70;99.90;;;;;;2221666;64;20100;-41
2022/01/24 01:59:43;;;;;;;1.77;1.00;;;-9.70;99.90;;;;;;2221795;64;20099;-41
2022/01/24 02:02:10;;;;;;;4.20;2.03;;;-9.80;99.90;;;;;;2221790;64;20107;-42
2022/01/24 02:04:38;;;;;;;16.10;4.80;;;-9.80;99.90;;;;;;2213671;64;20164;-42
2022/01/24 02:07:04;;;;;;;18.50;3.80;;;-9.80;99.90;;;;;;2217831;64;20197;-41
2022/01/24 02:09:32;;;;;;;13.97;4.97;;;-9.90;99.90;;;;;;2217863;64;20111;-42
2022/01/24 02:11:59;;;;;;;11.53;3.70;;;-9.90;99.90;;;;;;2221864;64;20084;-45
2022/01/24 02:14:32;;;;;;;11.77;3.53;;;-10.00;99.90;;;;;;2221624;64;20095;-39
2022/01/24 02:17:06;;;;;;;8.00;3.87;;;-10.00;99.90;;;;;;2221757;64;20112;-40
2022/01/24 02:19:49;;;;;;;17.33;5.38;;;-10.10;99.90;;;;;;2221627;64;20611;-39
2022/01/24 02:25:05;;;;;;;7.30;2.60;;;-10.00;99.90;;;;;;2221670;64;20156;-43
2022/01/24 02:27:43;;;;;;;8.73;2.60;;;-10.00;99.90;;;;;;2225011;64;20092;-39
2022/01/24 02:32:38;;;;;;;2.87;1.83;;;-9.90;99.90;;;;;;2225012;64;20184;-41
2022/01/24 02:35:08;;;;;;;2.87;2.20;;;-10.00;99.90;;;;;;2225071;64;20092;-40
2022/01/24 02:37:35;;;;;;;11.03;3.93;;;-10.00;99.90;;;;;;2221128;64;20099;-42
2022/01/24 02:40:13;;;;;;;5.13;3.60;;;-10.10;99.90;;;;;;2224711;64;20472;-42
2022/01/24 02:48:24;;;;;;;23.98;6.95;;;-10.30;99.90;;;;;;2224676;64;20084;-43
2022/01/24 02:53:29;;;;;;;4.00;2.20;;;-10.30;99.90;;;;;;2221083;64;20100;-41
2022/01/24 02:55:56;;;;;;;12.80;3.53;;;-10.30;99.90;;;;;;2225106;64;20136;-40
2022/01/24 02:58:22;;;;;;;25.13;6.87;;;-10.40;99.90;;;;;;2224837;64;20244;-40
2022/01/24 03:00:49;;;;;;;21.03;7.23;;;-10.40;99.90;;;;;;2225005;64;20080;-40
2022/01/24 03:03:16;;;;;;;21.73;7.57;;;-10.40;99.90;;;;;;2220896;64;20093;-42
2022/01/24 03:05:43;;;;;;;17.53;7.23;;;-10.50;99.90;;;;;;2224736;64;20138;-41
2022/01/24 03:08:10;;;;;;;1.20;0.67;;;-10.60;99.90;;;;;;2224539;64;20131;-43
2022/01/24 03:10:41;;;;;;;17.90;6.03;;;-10.60;99.90;;;;;;2224850;64;20115;-41
2022/01/24 03:15:46;;;;;;;23.57;10.10;;;-10.70;99.90;;;;;;2224966;64;20084;-46
2022/01/24 03:18:13;;;;;;;18.07;5.77;;;-10.70;99.90;;;;;;2224803;64;20096;-45
2022/01/24 03:20:40;;;;;;;17.70;7.47;;;-10.70;99.90;;;;;;2220836;64;20111;-39
2022/01/24 03:23:06;;;;;;;30.53;9.93;;;-10.70;99.90;;;;;;2224703;64;20096;-43
2022/01/24 03:25:32;;;;;;;15.83;7.87;;;-10.90;99.90;;;;;;2218959;64;20104;-42
2022/01/24 03:28:04;;;;;;;3.80;1.60;;;-10.90;99.90;;;;;;2220582;64;20115;-44
2022/01/24 03:30:34;;;;;;;1.30;0.70;;;-11.00;99.90;;;;;;2220592;64;20186;-47
2022/01/24 03:33:02;;;;;;;2.20;2.00;;;-11.00;99.90;;;;;;2220584;64;20077;-46
2022/01/24 03:35:29;;;;;;;11.93;6.53;;;-10.90;99.90;;;;;;2216890;64;20556;-46
2022/01/24 03:37:57;;;;;;;1.90;1.10;;;-10.90;99.90;;;;;;2220607;64;20099;-41
2022/01/24 03:40:24;;;;;;;7.93;3.70;;;-10.90;99.90;;;;;;2220930;64;20104;-43
2022/01/24 03:42:51;;;;;;;27.37;9.60;;;-10.90;99.90;;;;;;2220671;64;20445;-43
2022/01/24 03:46:11;;;;;;;28.97;11.90;;;-10.80;99.90;;;;;;2220931;64;20177;-45
2022/01/24 03:48:09;;;;;;;30.07;10.57;;;-10.90;99.90;;;;;;2206153;64;20177;-41
2022/01/24 03:50:37;;;;;;;2.10;0.63;;;-10.90;99.90;;;;;;2204448;64;20108;-45
2022/01/24 03:53:07;;;;;;;8.13;3.30;;;-11.00;99.90;;;;;;2207141;64;20098;-45
2022/01/24 03:55:33;;;;;;;12.13;5.57;;;-11.10;99.90;;;;;;2207477;64;20081;-44
2022/01/24 03:58:00;;;;;;;10.17;3.57;;;-11.00;99.90;;;;;;2207595;64;20165;-41
2022/01/24 04:00:27;;;;;;;16.83;6.70;;;-10.90;99.90;;;;;;2207537;64;20105;-41
2022/01/24 04:02:54;;;;;;;8.13;4.30;;;-10.90;99.90;;;;;;2207585;64;20108;-39
2022/01/24 04:05:21;;;;;;;12.60;5.57;;;-10.80;99.90;;;;;;2204375;64;20105;-43
2022/01/24 04:07:48;;;;;;;20.83;4.07;;;-10.80;99.90;;;;;;2207266;64;20124;-44
2022/01/24 04:10:18;;;;;;;30.53;5.47;;;-10.80;99.90;;;;;;2207710;64;20195;-42
2022/01/24 04:12:45;;;;;;;12.63;6.57;;;-10.80;99.90;;;;;;2207439;64;20280;-44
2022/01/24 04:15:27;;;;;;;14.07;7.13;;;-10.80;99.90;;;;;;2204214;64;20169;-42
2022/01/24 04:23:33;;;;;;;29.10;11.63;;;-10.90;99.90;;;;;;2199534;65;20162;-46
2022/01/24 04:26:00;;;;;;;29.90;12.13;;;-11.00;99.90;;;;;;2206006;64;20570;-41
2022/01/24 04:28:27;;;;;;;27.67;12.53;;;-11.10;99.90;;;;;;2211091;64;20101;-42
2022/01/24 04:30:53;;;;;;;22.67;10.33;;;-11.10;99.90;;;;;;2211202;64;20171;-41
2022/01/24 04:33:20;;;;;;;23.97;9.73;;;-11.20;99.90;;;;;;2211193;64;20119;-39
2022/01/24 04:35:47;;;;;;;30.83;12.63;;;-11.20;99.90;;;;;;2211373;64;20182;-44
2022/01/24 04:38:13;;;;;;;17.37;9.07;;;-11.30;99.90;;;;;;2211284;64;20101;-41
2022/01/24 04:40:42;;;;;;;25.70;8.67;;;-11.40;99.90;;;;;;2211358;64;20631;-43
2022/01/24 04:46:29;;;;;;;19.63;7.33;;;-11.60;99.90;;;;;;2211064;64;20090;-47
2022/01/24 04:57:02;;;;;;;33.00;14.33;;;-11.60;99.90;;;;;;2211938;64;20175;-44
2022/01/24 04:59:33;;;;;;;20.47;7.60;;;-11.60;99.90;;;;;;2216762;64;20422;-44
2022/01/24 05:02:01;;;;;;;12.57;6.13;;;-11.60;99.90;;;;;;2216671;64;20081;-48
2022/01/24 05:04:30;;;;;;;27.97;11.47;;;-11.60;99.90;;;;;;2216103;64;20100;-44
2022/01/24 05:06:57;;;;;;;27.87;10.07;;;-11.60;99.90;;;;;;2216596;64;20089;-41
2022/01/24 05:09:25;;;;;;;28.17;9.87;;;-11.60;99.90;;;;;;2216901;64;20093;-44
2022/01/24 05:25:52;;;;;;;18.57;6.03;;;-11.20;99.90;;;;;;2205663;64;20552;-43
2022/01/24 05:28:20;;;;;;;9.90;3.37;;;-11.10;99.90;;;;;;2207227;64;20684;-49
2022/01/24 05:30:49;;;;;;;3.33;0.93;;;-11.00;99.90;;;;;;2204029;64;20173;-48
2022/01/24 05:33:19;;;;;;;14.57;5.67;;;-10.90;99.90;;;;;;2207302;64;20098;-46
2022/01/24 05:35:49;;;;;;;1.40;1.27;;;-10.90;99.90;;;;;;2207278;64;20577;-51
2022/01/24 05:38:17;;;;;;;12.60;3.53;;;-10.80;99.90;;;;;;2207356;64;20098;-45
2022/01/24 05:40:45;;;;;;;9.03;2.87;;;-10.80;99.90;;;;;;2207216;64;20086;-45
2022/01/24 05:43:14;;;;;;;2.00;1.33;;;-10.80;99.90;;;;;;2207415;64;20200;-47
2022/01/24 05:45:44;;;;;;;4.73;3.20;;;-10.70;99.90;;;;;;2204028;64;20180;-52
2022/01/24 05:48:13;;;;;;;10.93;4.37;;;-10.70;99.90;;;;;;2207197;64;20094;-45
2022/01/24 05:50:42;;;;;;;4.60;1.97;;;-10.60;99.90;;;;;;2207027;64;20117;-45
2022/01/24 05:53:09;;;;;;;1.10;1.00;;;-10.50;99.90;;;;;;2220601;64;20186;-43
2022/01/24 05:55:35;;;;;;;4.40;2.13;;;-10.40;99.90;;;;;;2224034;64;20151;-43
2022/01/24 05:58:05;;;;;;;10.97;3.93;;;-10.30;99.90;;;;;;2224678;64;20510;-47
2022/01/24 06:00:40;;;;;;;11.60;4.30;;;-10.30;99.90;;;;;;2214508;64;20092;-48
2022/01/24 06:03:06;;;;;;;19.50;6.93;;;-10.10;99.90;;;;;;2225019;64;20107;-44
2022/01/24 06:05:36;;;;;;;11.50;7.03;;;-10.20;99.90;;;;;;2224910;64;20459;-42
2022/01/24 06:08:05;;;;;;;26.80;12.10;;;-9.90;99.90;;;;;;2224793;64;20495;-49
2022/01/24 06:10:36;;;;;;;1.20;0.47;;;-9.90;99.90;;;;;;2224880;64;20095;-47
2022/01/24 06:13:13;;;;;;;1.88;0.98;;;-9.50;99.90;;;;;;2224941;64;20092;-43
2022/01/24 06:15:40;;;;;;;2.50;1.50;;;-9.30;99.90;;;;;;2224734;64;20084;-43
2022/01/24 06:18:09;;;;;;;12.33;3.00;;;-9.00;99.90;;;;;;2221274;64;20103;-48
2022/01/24 06:20:36;;;;;;;3.47;1.37;;;-8.90;99.90;;;;;;2224868;64;20158;-47
2022/01/24 06:23:08;;;;;;;6.43;2.17;;;-8.70;99.90;;;;;;2225019;64;20096;-43
2022/01/24 06:25:35;;;;;;;9.70;2.57;;;-8.50;99.90;;;;;;2222814;64;20077;-42
2022/01/24 06:28:01;;;;;;;9.07;3.27;;;-8.30;99.90;;;;;;2220867;64;20445;-43
2022/01/24 06:30:28;;;;;;;8.00;3.53;;;-8.10;99.90;;;;;;2221060;64;20088;-40
2022/01/24 06:32:59;;;;;;;9.93;4.33;;;-8.10;99.90;;;;;;2220994;64;20103;-43
2022/01/24 06:35:25;;;;;;;10.67;2.90;;;-8.00;99.90;;;;;;2220995;64;20089;-42
2022/01/24 06:37:52;;;;;;;7.57;2.90;;;-7.90;99.90;;;;;;2221218;64;20092;-41
2022/01/24 06:40:21;;;;;;;7.90;3.10;;;-7.70;99.90;;;;;;2220987;64;20109;-44
2022/01/24 06:42:56;;;;;;;7.50;4.17;;;-7.60;99.90;;;;;;2220895;64;20652;-40
2022/01/24 06:45:24;;;;;;;10.40;4.97;;;-7.50;99.90;;;;;;2217208;64;20540;-44
2022/01/24 06:47:51;;;;;;;8.23;3.73;;;-7.50;99.90;;;;;;2220912;64;20089;-43
2022/01/24 06:50:17;;;;;;;9.60;3.17;;;-7.70;99.90;;;;;;2221037;64;20702;-42
2022/01/24 06:52:45;;;;;;;9.67;3.10;;;-7.70;99.90;;;;;;2221063;64;20144;-42
2022/01/24 06:55:13;;;;;;;9.17;3.63;;;-7.50;99.90;;;;;;2220690;64;20084;-46
2022/01/24 06:57:42;;;;;;;6.73;3.17;;;-7.60;99.90;;;;;;2220912;64;20694;-42
2022/01/24 07:00:11;;;;;;;10.30;3.17;;;-7.60;99.90;;;;;;2220853;64;20099;-47
2022/01/24 07:02:39;;;;;;;12.93;3.57;;;-7.50;99.90;;;;;;2221039;64;20112;-41
2022/01/24 07:05:06;;;;;;;8.13;3.50;;;-7.40;99.90;;;;;;2220944;64;20085;-45
2022/01/24 07:07:33;;;;;;;9.03;2.20;;;-7.30;99.90;;;;;;2220945;64;20548;-43
2022/01/24 07:10:04;;;;;;;10.73;3.10;;;-7.40;99.90;;;;;;2220632;64;20591;-47
2022/01/24 07:12:33;;;;;;;10.60;2.87;;;-7.40;99.90;;;;;;2221003;64;20104;-41
2022/01/24 07:15:06;;;;;;;5.47;2.43;;;-7.50;99.90;;;;;;2220770;64;20089;-41
2022/01/24 07:20:20;;;;;;;13.90;3.97;;;-7.40;99.90;;;;;;2220669;64;20185;-41
2022/01/24 07:22:48;;;;;;;5.47;2.50;;;-7.30;99.90;;;;;;2211152;64;20567;-43
2022/01/24 07:25:14;;;;;;;10.07;3.37;;;-7.20;99.90;;;;;;2211366;64;20093;-42
2022/01/24 07:27:41;;;;;;;8.37;3.03;;;-7.10;99.90;;;;;;2211232;64;20148;-42
2022/01/24 07:30:09;;;;;;;9.67;3.23;;;-7.00;99.90;;;;;;2211604;64;20546;-42
2022/01/24 07:32:36;;;;;;;8.37;2.53;;;-6.90;99.90;;;;;;2211273;64;20097;-43
2022/01/24 07:35:06;;;;;;;10.13;3.00;;;-6.80;99.90;;;;;;2211460;64;20108;-44
2022/01/24 07:37:35;;;;;;;12.23;3.90;;;-6.70;99.90;;;;;;2211431;64;20592;-42
2022/01/24 07:40:10;;;;;;;7.80;3.20;;;-6.60;99.90;;;;;;2211259;64;20215;-43
2022/01/24 07:42:57;;;;;;;15.50;4.87;;;-6.50;99.90;;;;;;2203525;64;20172;-48
2022/01/24 07:45:38;;;;;;;12.80;5.80;;;-6.30;99.90;;;;;;2202780;64;20210;-44
2022/01/24 07:48:05;;;;;;;11.53;4.90;;;-6.10;99.90;;;;;;2203550;65;20110;-44
2022/01/24 07:50:32;;;;;;;7.57;3.27;;;-5.90;99.90;;;;;;2203788;65;20610;-42
2022/01/24 07:53:01;;;;;;;10.83;3.67;;;-5.80;99.90;;;;;;2203546;65;20117;-38
2022/01/24 07:55:27;;;;;;;9.37;3.30;;;-5.90;99.90;;;;;;2200719;65;20551;-42
2022/01/24 07:57:54;;;;;;;17.17;9.20;;;-6.00;99.90;;;;;;2203803;64;20436;-42
2022/01/24 08:00:20;;;;;;;21.47;9.37;;;-6.00;99.90;;;;;;2209263;64;20148;-40
2022/01/24 08:02:47;;;;;;;20.93;8.23;;;-5.90;99.90;;;;;;2215110;64;20085;-41
2022/01/24 08:05:14;;;;;;;18.90;8.53;;;-5.80;99.90;;;;;;2215312;64;20084;-43
2022/01/24 08:07:40;;;;;;;20.17;8.07;;;-5.80;99.90;;;;;;2211998;64;20590;-42
2022/01/24 08:10:08;;;;;;;18.60;8.57;;;-5.90;99.90;;;;;;2215151;64;20089;-43
2022/01/24 08:12:35;;;;;;;23.87;9.10;;;-5.90;99.90;;;;;;2215067;64;20107;-42
2022/01/24 08:15:03;;;;;;;26.87;10.93;;;-5.70;99.90;;;;;;2211908;64;20556;-45
2022/01/24 08:17:30;;;;;;;23.50;8.67;;;-5.60;99.90;;;;;;2211857;64;20202;-42
2022/01/24 08:19:56;;;;;;;19.33;8.80;;;-5.50;99.90;;;;;;2215115;64;20539;-44
2022/01/24 08:22:25;;;;;;;18.47;9.47;;;-5.30;99.90;;;;;;2214771;64;20565;-48
2022/01/24 08:24:55;;;;;;;26.50;10.33;;;-5.10;99.90;;;;;;2214299;64;20488;-49
2022/01/24 08:27:25;;;;;;;21.77;10.43;;;-4.90;99.90;;;;;;2211045;64;20454;-47
2022/01/24 08:29:52;;;;;;;25.33;10.27;;;-4.60;99.90;;;;;;2203302;65;20506;-43
2022/01/24 08:32:20;;;;;;;25.47;12.20;;;-4.40;99.90;;;;;;2203376;64;20082;-45
2022/01/24 08:34:46;;;;;;;26.07;11.70;;;-4.20;99.90;;;;;;2197197;65;20153;-45
2022/01/24 08:37:13;;;;;;;31.43;12.50;;;-4.10;99.90;;;;;;2203620;65;20172;-47
2022/01/24 08:39:39;;;;;;;30.70;14.03;;;-3.90;99.90;;;;;;2203566;64;20091;-45
2022/01/24 08:42:55;;;;;;;37.57;13.60;;;-3.70;99.90;;;;;;2200277;65;20558;-41
2022/01/24 08:47:26;;;;;;;32.83;15.83;;;-3.60;99.90;;;;;;2210997;64;20097;-43
2022/01/24 08:49:55;;;;;;;30.43;13.40;;;-3.40;99.90;;;;;;2207188;64;20205;-42
2022/01/24 08:52:22;;;;;;;38.53;15.93;;;-3.30;99.90;;;;;;2207162;64;20137;-41
2022/01/24 08:54:48;;;;;;;35.40;15.80;;;-3.30;99.90;;;;;;2207272;64;20094;-40
2022/01/24 08:57:15;;;;;;;42.00;19.67;;;-3.30;99.90;;;;;;2207074;64;20094;-39
2022/01/24 08:59:41;;;;;;;38.80;18.73;;;-3.20;99.90;;;;;;2203236;65;20208;-38
2022/01/24 09:02:08;;;;;;;39.27;17.70;;;-3.30;99.90;;;;;;2206830;64;20660;-39
2022/01/24 09:04:35;;;;;;;34.87;19.13;;;-3.40;99.90;;;;;;2207260;64;20105;-35
2022/01/24 09:07:04;;;;;;;45.93;20.33;;;-3.30;99.90;;;;;;2207520;64;20187;-38
2022/01/24 09:09:35;;;;;;;48.00;24.23;;;-3.30;99.90;;;;;;2207380;64;20546;-41
2022/01/24 09:12:05;;;;;;;39.70;20.00;;;-3.40;99.90;;;;;;2199354;65;20491;-44
2022/01/24 09:14:32;;;;;;;47.33;19.83;;;-3.60;99.90;;;;;;2199637;65;20444;-41
2022/01/24 09:16:58;;;;;;;44.27;19.33;;;-3.60;99.90;;;;;;2199538;65;20106;-45
2022/01/24 09:19:25;;;;;;;39.47;18.53;;;-3.70;99.90;;;;;;2199767;65;20087;-42
2022/01/24 09:21:51;;;;;;;43.00;18.97;;;-3.60;99.90;;;;;;2202489;65;20246;-40
2022/01/24 09:24:18;;;;;;;37.17;18.17;;;-3.60;99.90;;;;;;2203388;65;20186;-50
2022/01/24 09:26:45;;;;;;;50.43;20.60;;;-3.60;99.90;;;;;;2203980;64;20165;-41
2022/01/24 09:29:11;;;;;;;33.40;17.53;;;-3.60;99.90;;;;;;2199455;65;20114;-38
2022/01/24 09:31:37;;;;;;;36.50;19.23;;;-3.60;99.90;;;;;;2199357;65;20159;-56
2022/01/24 09:34:04;;;;;;;38.87;17.90;;;-3.70;99.90;;;;;;2200367;65;20091;-43
2022/01/24 09:36:31;;;;;;;46.37;18.37;;;-3.80;99.90;;;;;;2201066;65;20186;-48
2022/01/24 09:39:06;;;;;;;45.97;21.33;;;-3.90;99.90;;;;;;2204162;65;20090;-51
2022/01/24 09:41:33;;;;;;;49.40;20.13;;;-4.00;99.90;;;;;;2204066;64;20566;-43
2022/01/24 09:43:59;;;;;;;39.13;18.57;;;-4.10;99.90;;;;;;2213797;64;20633;-44
2022/01/24 09:46:26;;;;;;;45.33;18.03;;;-4.00;99.90;;;;;;2215588;64;20119;-43
2022/01/24 09:48:52;;;;;;;47.83;19.70;;;-4.00;99.90;;;;;;2212324;64;20626;-49
2022/01/24 09:51:19;;;;;;;37.33;17.63;;;-3.90;99.90;;;;;;2209030;64;20089;-44
2022/01/24 09:53:45;;;;;;;42.20;19.70;;;-3.90;99.90;;;;;;2215515;64;20201;-45
2022/01/24 09:56:12;;;;;;;37.43;17.50;;;-3.80;99.90;;;;;;2215456;64;20488;-52
2022/01/24 09:58:38;;;;;;;35.97;16.00;;;-3.90;99.90;;;;;;2216307;64;20588;-57
2022/01/24 10:01:07;;;;;;;37.73;14.83;;;-4.10;99.90;;;;;;2223783;64;20552;-46
2022/01/24 10:03:33;;;;;;;36.53;17.00;;;-4.30;99.90;;;;;;2225314;64;20092;-53
2022/01/24 10:06:00;;;;;;;48.70;19.70;;;-4.30;99.90;;;;;;2224371;64;20103;-54
2022/01/24 10:08:26;;;;;;;36.77;19.00;;;-4.30;99.90;;;;;;2224080;64;20565;-55
2022/01/24 10:11:15;;;;;;;36.80;16.83;;;-4.20;99.90;;;;;;2224990;64;20072;-46
2022/01/24 10:16:36;;;;;;;33.72;15.75;;;-4.30;99.90;;;;;;2224952;64;20130;-41
2022/01/24 10:19:08;;;;;;;32.80;14.63;;;-4.30;99.90;;;;;;2225031;64;20555;-44
2022/01/24 10:21:44;;;;;;;37.57;12.97;;;-4.30;99.90;;;;;;2224985;64;20103;-41
2022/01/24 10:24:13;;;;;;;34.80;14.73;;;-4.40;99.90;;;;;;2224759;64;20092;-41
2022/01/24 10:26:39;;;;;;;29.87;13.70;;;-4.40;99.90;;;;;;2221161;64;20092;-41
2022/01/24 10:29:10;;;;;;;29.57;12.43;;;-4.50;99.90;;;;;;2221095;64;20152;-47
2022/01/24 10:31:44;;;;;;;30.63;13.07;;;-4.60;99.90;;;;;;2206811;64;20096;-42
2022/01/24 10:34:22;;;;;;;36.23;13.57;;;-4.70;99.90;;;;;;2220909;64;20092;-44
2022/01/24 10:36:52;;;;;;;28.00;12.37;;;-4.70;99.90;;;;;;2221115;64;20100;-46
2022/01/24 10:39:32;;;;;;;29.43;11.77;;;-4.80;99.90;;;;;;2211514;64;20101;-42
2022/01/24 10:44:59;;;;;;;28.70;11.97;;;-4.70;99.90;;;;;;2211300;64;20158;-48
2022/01/24 10:47:29;;;;;;;25.53;11.10;;;-4.60;99.90;;;;;;2211526;64;20102;-44
2022/01/24 10:49:56;;;;;;;31.37;11.70;;;-4.60;99.90;;;;;;2211488;64;20165;-43
2022/01/24 10:52:26;;;;;;;33.53;11.37;;;-4.60;99.90;;;;;;2211444;64;20085;-42
2022/01/24 10:55:13;;;;;;;31.50;13.17;;;-4.70;99.90;;;;;;2208137;64;20186;-42
2022/01/24 10:57:45;;;;;;;33.00;14.00;;;-4.60;99.90;;;;;;2211446;64;20093;-44
2022/01/24 11:00:18;;;;;;;30.23;12.80;;;-4.70;99.90;;;;;;2204399;64;20176;-42
2022/01/24 11:02:48;;;;;;;38.33;14.50;;;-4.70;99.90;;;;;;2207737;64;20149;-43
2022/01/24 11:05:25;;;;;;;39.50;14.90;;;-4.70;99.90;;;;;;2207383;64;20157;-44
2022/01/24 11:08:03;;;;;;;29.07;12.23;;;-4.80;99.90;;;;;;2207520;64;20644;-43
2022/01/24 11:10:38;;;;;;;29.97;12.57;;;-4.70;99.90;;;;;;2204542;64;20105;-43
2022/01/24 11:13:06;;;;;;;29.60;13.45;;;-4.60;99.90;;;;;;2207861;64;20638;-43
2022/01/24 11:15:33;;;;;;;33.87;13.77;;;-4.70;99.90;;;;;;2207622;64;20090;-43
2022/01/24 11:18:01;;;;;;;32.50;14.20;;;-4.80;99.90;;;;;;2211692;64;20156;-43
2022/01/24 11:20:33;;;;;;;28.27;13.73;;;-4.80;99.90;;;;;;2215213;64;20089;-43
2022/01/24 11:23:05;;;;;;;35.27;13.57;;;-4.90;99.90;;;;;;2215418;64;20089;-43
2022/01/24 11:25:36;;;;;;;29.17;13.40;;;-5.00;99.90;;;;;;2215068;64;20085;-42
2022/01/24 11:28:05;;;;;;;35.83;13.67;;;-5.10;99.90;;;;;;2212097;64;20097;-41
2022/01/24 11:30:35;;;;;;;32.60;12.33;;;-5.20;99.90;;;;;;2208713;64;20089;-41
2022/01/24 11:33:20;;;;;;;34.07;13.53;;;-5.30;99.90;;;;;;2215213;64;20101;-41
2022/01/24 11:35:54;;;;;;;31.08;12.07;;;-5.30;99.90;;;;;;2211982;64;20081;-40
2022/01/24 11:38:42;;;;;;;23.77;10.95;;;-5.40;99.90;;;;;;2215221;64;20654;-41
2022/01/24 11:41:31;;;;;;;26.10;11.77;;;-5.50;99.90;;;;;;2212243;64;20081;-41
2022/01/24 11:44:12;;;;;;;24.90;12.03;;;-5.60;99.90;;;;;;2212134;64;20085;-43
2022/01/24 11:46:48;;;;;;;28.10;10.23;;;-5.60;99.90;;;;;;2212301;64;20139;-39
2022/01/24 11:49:17;;;;;;;27.43;11.57;;;-5.70;99.90;;;;;;2214936;64;20643;-39
2022/01/24 11:51:46;;;;;;;28.10;12.00;;;-5.70;99.90;;;;;;2216438;64;20082;-41
2022/01/24 11:55:38;;;;;;;32.63;13.23;;;-5.80;99.90;;;;;;2220214;64;20107;-40
2022/01/24 11:57:47;;;;;;;24.33;10.50;;;-5.80;99.90;;;;;;2221413;64;20475;-39
2022/01/24 12:00:17;;;;;;;30.03;10.97;;;-5.80;99.90;;;;;;2216568;64;20559;-39
2022/01/24 12:02:44;;;;;;;35.10;13.93;;;-5.80;99.90;;;;;;2224552;64;20088;-38
2022/01/24 12:05:23;;;;;;;35.30;13.37;;;-5.90;99.90;;;;;;2224329;64;20236;-41
2022/01/24 12:07:53;;;;;;;30.13;11.63;;;-6.10;99.90;;;;;;2224337;64;20479;-40
2022/01/24 12:10:36;;;;;;;26.53;11.53;;;-6.10;99.90;;;;;;2224084;64;20088;-42
2022/01/24 12:13:04;;;;;;;32.57;12.43;;;-6.10;99.90;;;;;;2224143;64;20726;-42
2022/01/24 12:16:01;;;;;;;24.57;10.50;;;-6.10;99.90;;;;;;2224280;64;20084;-40
2022/01/24 12:18:28;;;;;;;33.93;14.47;;;-6.00;99.90;;;;;;2224494;64;20123;-40
2022/01/24 12:20:57;;;;;;;33.37;15.10;;;-6.10;99.90;;;;;;2224391;64;20099;-40
2022/01/24 12:23:27;;;;;;;30.13;12.73;;;-6.00;99.90;;;;;;2224514;64;20094;-39
2022/01/24 12:26:06;;;;;;;38.03;14.30;;;-6.10;99.90;;;;;;2221892;64;20161;-40
2022/01/24 12:29:14;;;;;;;36.10;15.50;;;-6.20;99.90;;;;;;2220408;64;20093;-39
2022/01/24 12:31:52;;;;;;;32.57;14.30;;;-6.30;99.90;;;;;;2217463;64;20684;-41
2022/01/24 12:34:31;;;;;;;37.20;14.00;;;-6.40;99.90;;;;;;2220796;64;20084;-42
2022/01/24 12:37:32;;;;;;;30.70;12.33;;;-6.50;99.90;;;;;;2214745;64;20174;-40
2022/01/24 12:40:12;;;;;;;22.37;9.53;;;-6.70;99.90;;;;;;2213865;64;20086;-42
2022/01/24 12:42:50;;;;;;;21.07;9.97;;;-7.10;99.90;;;;;;2208966;64;20101;-42
2022/01/24 12:48:22;;;;;;;34.13;10.27;;;-7.40;99.90;;;;;;2209749;64;20113;-40
2022/01/24 12:50:52;;;;;;;24.43;10.57;;;-7.50;99.90;;;;;;2215062;64;20170;-43
2022/01/24 12:53:20;;;;;;;22.37;10.47;;;-7.60;99.90;;;;;;2211940;64;20513;-44
2022/01/24 12:56:01;;;;;;;25.00;10.97;;;-7.80;99.90;;;;;;2212071;64;20231;-46
2022/01/24 12:58:41;;;;;;;19.73;8.73;;;-7.90;99.90;;;;;;2215033;64;20103;-44
2022/01/24 13:01:23;;;;;;;25.20;8.07;;;-7.90;99.90;;;;;;2211727;64;20701;-43
2022/01/24 13:04:13;;;;;;;16.20;6.87;;;-8.00;99.90;;;;;;2214892;64;20097;-41
2022/01/24 13:06:46;;;;;;;29.63;11.47;;;-8.00;99.90;;;;;;2214897;64;20434;-40
2022/01/24 13:09:18;;;;;;;25.10;10.67;;;-8.00;99.90;;;;;;2214992;64;20092;-41
2022/01/24 13:11:46;;;;;;;26.07;9.90;;;-8.10;99.90;;;;;;2211839;64;20108;-44
2022/01/24 13:14:22;;;;;;;25.00;9.87;;;-8.20;99.90;;;;;;2217078;64;20092;-43
2022/01/24 13:22:43;;;;;;;20.20;7.57;;;-8.50;99.90;;;;;;2220426;64;20080;-41
2022/01/24 13:25:40;;;;;;;20.13;7.23;;;-8.70;99.90;;;;;;2221802;64;20076;-45
2022/01/24 13:28:12;;;;;;;24.53;7.03;;;-8.80;99.90;;;;;;2223409;64;20119;-45
2022/01/24 13:30:43;;;;;;;18.00;8.20;;;-9.10;99.90;;;;;;2220385;64;20106;-40
2022/01/24 13:33:15;;;;;;;22.93;8.67;;;-9.20;99.90;;;;;;2224370;64;20172;-42
2022/01/24 13:35:46;;;;;;;26.93;11.27;;;-9.30;99.90;;;;;;2224273;64;20164;-44
2022/01/24 13:38:20;;;;;;;27.47;9.87;;;-9.40;99.90;;;;;;2224573;64;20159;-48
2022/01/24 13:40:59;;;;;;;30.97;11.37;;;-9.60;99.90;;;;;;2224209;64;20116;-41
2022/01/24 13:43:44;;;;;;;31.03;12.60;;;-9.80;99.90;;;;;;2220340;64;20094;-42
2022/01/24 13:46:22;;;;;;;28.20;9.30;;;-9.90;99.90;;;;;;2224010;64;20107;-44
2022/01/24 13:49:01;;;;;;;22.17;10.07;;;-9.90;99.90;;;;;;2220463;64;20558;-45
2022/01/24 13:51:39;;;;;;;8.03;3.50;;;-10.00;99.90;;;;;;2224021;64;20088;-47
2022/01/24 13:54:27;;;;;;;1.83;1.73;;;-10.20;99.90;;;;;;2224052;64;20163;-45
2022/01/24 13:57:20;;;;;;;7.30;3.10;;;-10.30;99.90;;;;;;2222423;64;20456;-44
2022/01/24 13:59:47;;;;;;;6.53;2.50;;;-10.30;99.90;;;;;;2223911;64;20093;-41
2022/01/24 14:02:27;;;;;;;18.23;6.50;;;-10.30;99.90;;;;;;2220436;64;20088;-41
2022/01/24 14:05:09;;;;;;;12.03;5.53;;;-10.30;99.90;;;;;;2218907;64;20184;-45
2022/01/24 14:07:45;;;;;;;16.30;5.73;;;-10.30;99.90;;;;;;2220223;64;20096;-43
2022/01/24 14:10:15;;;;;;;9.03;4.17;;;-10.30;99.90;;;;;;2220547;64;20134;-43
2022/01/24 14:12:49;;;;;;;23.23;10.77;;;-10.30;99.90;;;;;;2220182;64;20107;-44
2022/01/24 14:15:46;;;;;;;28.33;11.02;;;-10.30;99.90;;;;;;2223962;64;20096;-44
2022/01/24 14:18:31;;;;;;;20.70;8.63;;;-10.40;99.90;;;;;;2223514;64;20188;-46
2022/01/24 14:21:18;;;;;;;8.73;3.23;;;-10.40;99.90;;;;;;2221388;64;20173;-46
2022/01/24 14:23:54;;;;;;;21.17;7.93;;;-10.60;99.90;;;;;;2224709;64;20206;-46
2022/01/24 14:26:28;;;;;;;27.30;9.23;;;-10.60;99.90;;;;;;2217813;64;20097;-44
2022/01/24 14:29:09;;;;;;;20.73;8.97;;;-10.70;99.90;;;;;;2220755;64;20573;-42
2022/01/24 14:31:40;;;;;;;28.13;12.63;;;-10.80;99.90;;;;;;2216997;64;20143;-45
2022/01/24 14:34:15;;;;;;;25.13;11.83;;;-10.90;99.90;;;;;;2220900;64;20164;-45
2022/01/24 14:36:59;;;;;;;24.50;10.23;;;-11.00;99.90;;;;;;2214036;64;20092;-45
2022/01/24 14:39:27;;;;;;;1.40;1.30;;;-11.00;99.90;;;;;;2220693;64;20189;-45
2022/01/24 14:41:55;;;;;;;7.97;3.20;;;-11.10;99.90;;;;;;2220715;64;20602;-44
2022/01/24 14:47:14;;;;;;;21.60;5.20;;;-11.10;99.90;;;;;;2217446;64;20574;-46
2022/01/24 14:49:43;;;;;;;19.30;5.10;;;-11.20;99.90;;;;;;2217128;64;20097;-49